createdAt,value
2023-05-14T00:01:08.186Z,9.31
2023-05-14T00:08:26.420Z,9.21
2023-05-14T00:15:46.212Z,9.11
2023-05-14T00:23:04.400Z,9.20
2023-05-14T00:30:22.775Z,9.17
2023-05-14T00:37:43.461Z,9.29
2023-05-14T00:45:01.877Z,9.46
2023-05-14T00:52:20.132Z,9.51
2023-05-14T00:59:42.690Z,9.55
2023-05-14T01:07:10.168Z,9.61
2023-05-14T01:14:34.337Z,9.68
2023-05-14T01:21:54.019Z,9.79
2023-05-14T01:29:15.606Z,9.95
2023-05-14T01:36:34.187Z,10.07
2023-05-14T01:43:54.084Z,10.11
2023-05-14T01:51:14.754Z,10.10
2023-05-14T01:58:33.339Z,10.11
2023-05-14T02:05:53.424Z,10.12
2023-05-14T02:13:11.663Z,10.00
2023-05-14T02:20:29.967Z,9.89
2023-05-14T02:27:49.648Z,9.75
2023-05-14T02:35:09.167Z,9.63
2023-05-14T02:42:27.317Z,9.47
2023-05-14T02:49:46.868Z,9.38
2023-05-14T02:57:05.323Z,9.34
2023-05-14T03:04:23.732Z,9.35
2023-05-14T03:11:43.545Z,9.26
2023-05-14T03:19:01.737Z,9.21
2023-05-14T03:26:21.722Z,9.15
2023-05-14T03:33:41.411Z,8.98
2023-05-14T03:40:59.614Z,8.93
2023-05-14T03:48:18.321Z,8.83
2023-05-14T03:55:38.173Z,9.10
2023-05-14T04:02:56.474Z,9.22
2023-05-14T04:10:15.587Z,9.40
2023-05-14T04:17:35.558Z,9.50
2023-05-14T04:24:53.735Z,9.76
2023-05-14T04:32:12.490Z,9.90
2023-05-14T04:39:32.205Z,10.26
2023-05-14T04:46:50.503Z,11.05
2023-05-14T04:54:08.858Z,12.50
2023-05-14T05:01:28.577Z,14.37
2023-05-14T05:08:46.760Z,14.49
2023-05-14T05:16:05.527Z,15.24
2023-05-14T05:23:25.265Z,15.18
2023-05-14T05:30:45.225Z,14.57
2023-05-14T05:38:04.061Z,14.20
2023-05-14T05:45:24.090Z,14.64
2023-05-14T05:52:42.436Z,15.31
2023-05-14T06:00:01.155Z,15.64
2023-05-14T06:07:21.345Z,15.28
2023-05-14T06:14:39.602Z,14.93
2023-05-14T06:21:57.828Z,15.77
2023-05-14T06:29:17.487Z,16.27
2023-05-14T06:36:35.780Z,16.10
2023-05-14T06:43:54.035Z,16.87
2023-05-14T06:51:14.496Z,17.54
2023-05-14T06:58:32.750Z,17.96
2023-05-14T07:05:52.022Z,19.58
2023-05-14T07:13:11.589Z,19.65
2023-05-14T07:20:29.735Z,19.04
2023-05-14T07:27:47.864Z,20.59
2023-05-14T07:35:08.583Z,19.26
2023-05-14T07:42:35.815Z,19.47
2023-05-14T07:49:56.540Z,19.93
2023-05-14T07:57:16.631Z,20.98
2023-05-14T08:04:36.151Z,20.74
2023-05-14T08:11:54.424Z,21.48
2023-05-14T08:19:14.586Z,21.37
2023-05-14T08:26:32.888Z,21.78
2023-05-14T08:33:51.053Z,21.99
2023-05-14T08:41:11.696Z,22.34
2023-05-14T08:48:34.313Z,22.16
2023-05-14T08:55:52.541Z,21.42
2023-05-14T09:03:12.797Z,19.84
2023-05-14T09:10:32.029Z,19.28
2023-05-14T09:17:50.499Z,19.86
2023-05-14T09:25:12.447Z,18.75
2023-05-14T09:32:36.935Z,18.50
2023-05-14T09:39:55.040Z,18.72
2023-05-14T09:47:16.327Z,18.51
2023-05-14T09:54:34.746Z,19.96
2023-05-14T10:01:54.381Z,18.46
2023-05-14T10:09:14.875Z,19.89
2023-05-14T10:16:35.659Z,20.61
2023-05-14T10:23:54.081Z,21.70
2023-05-14T10:31:14.185Z,23.09
2023-05-14T10:38:34.845Z,21.13
2023-05-14T10:45:53.559Z,19.66
2023-05-14T10:53:14.451Z,22.07
2023-05-14T11:00:34.709Z,23.01
2023-05-14T11:07:53.993Z,22.62
2023-05-14T11:15:15.141Z,22.22
2023-05-14T11:22:33.293Z,21.31
2023-05-14T11:29:51.756Z,21.51
2023-05-14T11:37:12.727Z,23.25
2023-05-14T11:44:30.956Z,22.41
2023-05-14T11:51:49.089Z,22.24
2023-05-14T11:59:08.701Z,22.06
2023-05-14T12:06:32.002Z,22.83
2023-05-14T12:13:50.081Z,22.33
2023-05-14T12:21:10.075Z,22.69
2023-05-14T12:28:28.876Z,21.91
2023-05-14T12:35:47.091Z,21.91
2023-05-14T12:43:07.871Z,20.90
2023-05-14T12:50:26.382Z,21.27
2023-05-14T12:57:44.667Z,21.65
2023-05-14T13:05:04.465Z,20.86
2023-05-14T13:12:22.706Z,21.18
2023-05-14T13:19:40.894Z,20.62
2023-05-14T13:27:00.330Z,21.44
2023-05-14T13:34:18.583Z,20.67
2023-05-14T13:41:38.423Z,21.20
2023-05-14T13:48:57.952Z,20.68
2023-05-14T13:56:16.075Z,20.48
2023-05-14T14:03:34.221Z,20.82
2023-05-14T14:10:55.422Z,19.99
2023-05-14T14:18:13.701Z,20.06
2023-05-14T14:25:31.878Z,19.56
2023-05-14T14:32:51.638Z,19.48
2023-05-14T14:40:12.131Z,19.54
2023-05-14T14:47:30.706Z,19.35
2023-05-14T14:54:50.399Z,18.99
2023-05-14T15:02:10.391Z,19.44
2023-05-14T15:09:28.747Z,19.17
2023-05-14T15:16:50.823Z,19.41
2023-05-14T15:24:12.821Z,19.29
2023-05-14T15:31:31.245Z,19.15
2023-05-14T15:38:51.354Z,19.27
2023-05-14T15:46:09.560Z,19.14
2023-05-14T15:53:27.775Z,19.22
2023-05-14T16:00:47.615Z,19.05
2023-05-14T16:08:06.419Z,19.06
2023-05-14T16:15:25.103Z,18.89
2023-05-14T16:22:44.941Z,18.89
2023-05-14T16:30:03.247Z,18.90
2023-05-14T16:37:21.901Z,18.69
2023-05-14T16:44:41.521Z,18.67
2023-05-14T16:51:59.669Z,18.64
2023-05-14T16:59:18.313Z,18.59
2023-05-14T17:06:38.074Z,18.46
2023-05-14T17:13:56.248Z,18.35
2023-05-14T17:21:14.429Z,18.45
2023-05-14T17:28:34.077Z,18.19
2023-05-14T17:35:52.693Z,18.10
2023-05-14T17:43:11.243Z,17.97
2023-05-14T17:50:31.018Z,17.77
2023-05-14T17:57:49.238Z,17.67
2023-05-14T18:05:08.204Z,17.51
2023-05-14T18:12:28.023Z,17.46
2023-05-14T18:19:46.184Z,17.31
2023-05-14T18:27:04.484Z,17.21
2023-05-14T18:34:24.127Z,16.93
2023-05-14T18:41:42.504Z,16.89
2023-05-14T18:49:00.750Z,16.78
2023-05-14T18:56:21.494Z,16.69
2023-05-14T19:03:41.831Z,16.62
2023-05-14T19:11:00.335Z,16.58
2023-05-14T19:18:20.225Z,16.32
2023-05-14T19:25:39.113Z,16.30
2023-05-14T19:32:57.574Z,16.12
2023-05-14T19:40:17.499Z,16.14
2023-05-14T19:47:36.120Z,16.07
2023-05-14T19:54:54.588Z,15.46
2023-05-14T20:02:18.705Z,15.29
2023-05-14T20:09:37.210Z,15.12
2023-05-14T20:16:58.128Z,15.00
2023-05-14T20:24:18.048Z,15.30
2023-05-14T20:31:36.294Z,14.99
2023-05-14T20:38:54.546Z,14.79
2023-05-14T20:46:14.289Z,14.62
2023-05-14T20:53:32.613Z,14.40
2023-05-14T21:00:51.330Z,14.30
2023-05-14T21:08:11.337Z,14.14
2023-05-14T21:15:30.797Z,14.00
2023-05-14T21:22:49.014Z,14.03
2023-05-14T21:30:10.428Z,13.82
2023-05-14T21:37:29.098Z,12.99
2023-05-14T21:44:47.572Z,12.53
2023-05-14T21:52:07.764Z,12.41
2023-05-14T21:59:26.045Z,12.43
2023-05-14T22:06:45.778Z,12.77
2023-05-14T22:14:05.507Z,12.76
2023-05-14T22:21:23.980Z,12.57
2023-05-14T22:28:43.252Z,12.71
2023-05-14T22:36:02.987Z,12.74
2023-05-14T22:43:22.119Z,12.74
2023-05-14T22:50:40.469Z,12.98
2023-05-14T22:58:00.374Z,13.12
2023-05-14T23:05:18.960Z,13.32
2023-05-14T23:12:37.501Z,13.10
2023-05-14T23:19:57.559Z,13.09
2023-05-14T23:27:15.922Z,13.04
2023-05-14T23:34:34.912Z,12.96
2023-05-14T23:41:54.829Z,12.72
2023-05-14T23:49:13.805Z,12.88
2023-05-14T23:56:32.288Z,12.85
